Terminal Aerodrome Forecast
Issued by NWS Birmingham, AL

Home | Current Version | Previous Version | Text Only | Print | Product List | Glossary On
Versions: 1 2 3 4 5 6 7 8 9 10 11 12 13 14 15 16 17 18
185
FTUS44 KBMX 201120
TAFBHM
TAF
KBHM 201120Z 2012/2112 22007KT P6SM OVC015
     FM201600 21008KT P6SM BKN025
     FM201900 20008KT P6SM SCT025 BKN035
     FM210400 19005KT P6SM OVC015=

USA.gov is the U.S. government's official web portal to all federal, state and local government web resources and services.